createdAt,value
2018-12-16T00:00:55.496Z,57.00
2018-12-16T00:03:23.711Z,57.00
2018-12-16T00:05:51.906Z,56.90
2018-12-16T00:08:20.131Z,57.10
2018-12-16T00:10:48.325Z,57.10
2018-12-16T00:13:16.594Z,57.20
2018-12-16T00:15:44.843Z,57.20
2018-12-16T00:18:13.072Z,57.10
2018-12-16T00:20:42.078Z,57.10
2018-12-16T00:23:11.098Z,57.10
2018-12-16T00:25:39.294Z,57.10
2018-12-16T00:28:07.546Z,57.20
2018-12-16T00:30:35.799Z,57.10
2018-12-16T00:33:04.815Z,57.10
2018-12-16T00:35:33.079Z,57.10
2018-12-16T00:38:02.072Z,57.10
2018-12-16T00:40:30.313Z,57.10
2018-12-16T00:42:58.560Z,57.20
2018-12-16T00:45:26.797Z,57.30
2018-12-16T00:47:55.753Z,57.50
2018-12-16T00:50:23.976Z,57.40
2018-12-16T00:52:52.996Z,57.40
2018-12-16T00:55:21.244Z,57.40
2018-12-16T00:57:49.473Z,57.40
2018-12-16T01:00:17.729Z,57.70
2018-12-16T01:02:45.915Z,57.40
2018-12-16T01:05:14.126Z,57.30
2018-12-16T01:07:43.093Z,57.20
2018-12-16T01:10:11.361Z,57.30
2018-12-16T01:12:39.592Z,57.10
2018-12-16T01:15:08.573Z,57.40
2018-12-16T01:17:37.828Z,57.80
2018-12-16T01:20:06.045Z,57.80
2018-12-16T01:22:35.072Z,57.30
2018-12-16T01:25:03.326Z,57.30
2018-12-16T01:27:31.800Z,57.40
2018-12-16T01:30:00.070Z,57.30
2018-12-16T01:32:28.278Z,57.60
2018-12-16T01:34:56.488Z,57.70
2018-12-16T01:37:24.727Z,57.60
2018-12-16T01:39:52.943Z,58.50
2018-12-16T01:42:21.144Z,58.00
2018-12-16T01:44:50.175Z,58.10
2018-12-16T01:47:18.387Z,58.10
2018-12-16T01:49:46.639Z,58.30
2018-12-16T01:52:14.888Z,58.00
2018-12-16T01:54:43.895Z,57.90
2018-12-16T01:57:12.115Z,57.90
2018-12-16T01:59:40.323Z,58.40
2018-12-16T02:02:09.340Z,58.20
2018-12-16T02:04:37.599Z,58.20
2018-12-16T02:07:05.829Z,58.40
2018-12-16T02:09:34.081Z,58.10
2018-12-16T02:12:02.360Z,58.10
2018-12-16T02:14:30.539Z,57.90
2018-12-16T02:16:58.807Z,58.40
2018-12-16T02:19:27.015Z,58.50
2018-12-16T02:21:55.237Z,58.70
2018-12-16T02:24:24.244Z,58.40
2018-12-16T02:26:52.457Z,58.40
2018-12-16T02:29:20.699Z,58.40
2018-12-16T02:31:48.944Z,58.00
2018-12-16T02:34:17.150Z,57.80
2018-12-16T02:36:45.406Z,57.90
2018-12-16T02:39:14.387Z,58.70
2018-12-16T02:41:42.590Z,58.70
2018-12-16T02:44:10.818Z,58.10
2018-12-16T02:46:39.022Z,58.20
2018-12-16T02:49:08.913Z,57.80
2018-12-16T02:51:37.167Z,57.80
2018-12-16T02:54:06.183Z,57.80
2018-12-16T02:56:34.413Z,57.80
2018-12-16T02:59:02.687Z,57.60
2018-12-16T03:01:30.930Z,57.60
2018-12-16T03:03:59.165Z,57.80
2018-12-16T03:06:27.374Z,57.70
2018-12-16T03:08:55.574Z,57.90
2018-12-16T03:11:24.563Z,57.60
2018-12-16T03:13:53.532Z,57.60
2018-12-16T03:16:21.809Z,57.60
2018-12-16T03:18:50.040Z,57.50
2018-12-16T03:21:18.251Z,58.80
2018-12-16T03:23:46.500Z,58.40
2018-12-16T03:26:14.709Z,57.80
2018-12-16T03:28:43.677Z,58.10
2018-12-16T03:31:11.904Z,58.20
2018-12-16T03:33:40.919Z,58.90
2018-12-16T03:36:09.888Z,58.30
2018-12-16T03:38:38.896Z,58.20
2018-12-16T03:41:07.901Z,58.10
2018-12-16T03:43:36.935Z,58.30
2018-12-16T03:46:05.180Z,58.40
2018-12-16T03:48:34.184Z,58.40
2018-12-16T03:51:02.388Z,58.40
2018-12-16T03:53:30.602Z,58.30
2018-12-16T03:55:59.575Z,59.00
2018-12-16T03:58:27.790Z,58.90
2018-12-16T04:00:55.996Z,58.70
2018-12-16T04:03:24.224Z,59.20
2018-12-16T04:05:52.454Z,58.60
2018-12-16T04:08:20.666Z,59.20
2018-12-16T04:10:49.640Z,58.90
2018-12-16T04:13:17.859Z,58.90
2018-12-16T04:15:46.066Z,59.20
2018-12-16T04:18:14.286Z,58.80
2018-12-16T04:20:43.260Z,58.60
2018-12-16T04:23:11.794Z,58.60
2018-12-16T04:25:40.036Z,58.60
2018-12-16T04:28:09.382Z,58.80
2018-12-16T04:30:36.506Z,58.60
2018-12-16T04:33:05.476Z,58.40
2018-12-16T04:35:33.692Z,58.60
2018-12-16T04:38:01.898Z,59.30
2018-12-16T04:40:30.154Z,58.50
2018-12-16T04:42:58.384Z,59.80
2018-12-16T04:45:26.591Z,59.00
2018-12-16T04:47:54.800Z,58.90
2018-12-16T04:50:23.020Z,58.90
2018-12-16T04:52:51.217Z,59.10
2018-12-16T04:55:19.445Z,58.90
2018-12-16T04:57:47.688Z,59.20
2018-12-16T05:00:15.933Z,59.20
2018-12-16T05:02:44.939Z,59.40
2018-12-16T05:05:13.949Z,59.20
2018-12-16T05:07:42.197Z,59.20
2018-12-16T05:10:20.948Z,59.10
2018-12-16T05:12:49.198Z,59.00
2018-12-16T05:15:18.427Z,59.50
2018-12-16T05:17:46.670Z,59.40
2018-12-16T05:20:14.862Z,59.50
2018-12-16T05:22:43.076Z,59.30
2018-12-16T05:25:11.326Z,58.90
2018-12-16T05:27:39.545Z,59.10
2018-12-16T05:30:08.513Z,59.50
2018-12-16T05:32:36.706Z,59.10
2018-12-16T05:35:04.929Z,59.00
2018-12-16T05:37:33.905Z,58.90
2018-12-16T05:40:02.881Z,59.50
2018-12-16T05:42:31.143Z,59.00
2018-12-16T05:44:59.386Z,59.10
2018-12-16T05:47:27.641Z,59.00
2018-12-16T05:49:56.643Z,59.40
2018-12-16T05:52:25.671Z,59.10
2018-12-16T05:54:53.877Z,59.10
2018-12-16T05:57:22.360Z,59.20
2018-12-16T05:59:50.556Z,59.10
2018-12-16T06:02:19.533Z,59.00
2018-12-16T06:04:47.743Z,59.00
2018-12-16T06:07:16.001Z,59.00
2018-12-16T06:09:44.229Z,59.20
2018-12-16T06:12:12.475Z,59.30
2018-12-16T06:14:40.727Z,59.10
2018-12-16T06:17:08.975Z,59.50
2018-12-16T06:19:37.945Z,59.30
2018-12-16T06:22:06.194Z,59.30
2018-12-16T06:24:34.397Z,59.80
2018-12-16T06:27:02.658Z,59.40
2018-12-16T06:29:30.868Z,59.50
2018-12-16T06:31:59.115Z,59.50
2018-12-16T06:34:27.381Z,59.80
2018-12-16T06:36:55.627Z,60.30
2018-12-16T06:39:24.142Z,60.00
2018-12-16T06:41:52.338Z,59.90
2018-12-16T06:44:20.585Z,66.80
2018-12-16T06:46:49.609Z,61.00
2018-12-16T06:49:18.606Z,60.90
2018-12-16T06:51:46.823Z,61.60
2018-12-16T06:54:15.073Z,61.10
2018-12-16T06:56:43.323Z,61.00
2018-12-16T06:59:11.512Z,60.80
2018-12-16T07:01:39.731Z,60.50
2018-12-16T07:04:07.971Z,60.70
2018-12-16T07:06:36.158Z,60.90
2018-12-16T07:09:04.392Z,60.90
2018-12-16T07:11:32.658Z,60.80
2018-12-16T07:14:00.838Z,60.30
2018-12-16T07:16:29.072Z,60.60
2018-12-16T07:18:57.323Z,60.30
2018-12-16T07:21:25.591Z,60.10
2018-12-16T07:23:54.572Z,60.30
2018-12-16T07:26:22.769Z,60.30
2018-12-16T07:28:51.059Z,60.30
2018-12-16T07:31:19.222Z,60.60
2018-12-16T07:33:47.475Z,60.70
2018-12-16T07:36:16.459Z,62.50
2018-12-16T07:38:45.404Z,61.80
2018-12-16T07:41:13.625Z,62.20
2018-12-16T07:43:42.591Z,60.60
2018-12-16T07:46:10.796Z,60.50
2018-12-16T07:48:39.001Z,61.10
2018-12-16T07:51:07.231Z,60.80
2018-12-16T07:53:35.433Z,59.90
2018-12-16T07:56:03.686Z,60.60
2018-12-16T07:58:31.875Z,60.60
2018-12-16T08:01:00.086Z,60.90
2018-12-16T08:03:28.302Z,61.50
2018-12-16T08:05:56.506Z,61.10
2018-12-16T08:08:24.698Z,61.20
2018-12-16T08:10:52.965Z,61.10
2018-12-16T08:13:21.193Z,61.00
2018-12-16T08:15:49.390Z,60.80
2018-12-16T08:18:18.372Z,60.90
2018-12-16T08:20:46.630Z,61.00
2018-12-16T08:23:14.874Z,60.60
2018-12-16T08:25:43.113Z,61.00
2018-12-16T08:28:11.367Z,60.60
2018-12-16T08:30:39.614Z,61.20
2018-12-16T08:33:07.856Z,61.00
2018-12-16T08:35:36.851Z,61.70
2018-12-16T08:38:05.861Z,61.30
2018-12-16T08:40:34.824Z,61.40
2018-12-16T08:43:03.816Z,63.00
2018-12-16T08:45:32.049Z,62.80
2018-12-16T08:48:00.305Z,62.90
2018-12-16T08:50:28.543Z,62.60
2018-12-16T08:52:56.788Z,62.00
2018-12-16T08:55:24.999Z,61.50
2018-12-16T08:57:54.012Z,62.20
2018-12-16T09:00:23.023Z,61.40
2018-12-16T09:02:51.231Z,61.40
2018-12-16T09:05:19.455Z,61.80
2018-12-16T09:07:48.423Z,61.40
2018-12-16T09:10:16.655Z,61.40
2018-12-16T09:12:44.850Z,62.50
2018-12-16T09:15:13.058Z,62.70
2018-12-16T09:17:42.043Z,64.10
2018-12-16T09:20:10.574Z,64.10
2018-12-16T09:22:38.807Z,66.50
2018-12-16T09:25:07.053Z,66.90
2018-12-16T09:27:35.321Z,68.20
2018-12-16T09:30:03.520Z,69.40
2018-12-16T09:32:31.789Z,69.20
2018-12-16T09:35:00.044Z,69.40
2018-12-16T09:37:28.239Z,69.80
2018-12-16T09:39:56.491Z,66.80
2018-12-16T09:42:24.758Z,67.90
2018-12-16T09:44:52.990Z,71.80
2018-12-16T09:47:21.247Z,68.60
2018-12-16T09:49:49.460Z,69.00
2018-12-16T09:52:17.712Z,68.70
2018-12-16T09:54:45.972Z,74.70
2018-12-16T09:57:14.225Z,71.00
2018-12-16T09:59:42.421Z,69.00
2018-12-16T10:02:10.630Z,72.80
2018-12-16T10:04:39.613Z,71.70
2018-12-16T10:07:07.869Z,71.50
2018-12-16T10:09:36.129Z,69.80
2018-12-16T10:12:05.088Z,70.90
2018-12-16T10:14:34.123Z,71.50
2018-12-16T10:17:02.369Z,71.40
2018-12-16T10:19:31.349Z,72.30
2018-12-16T10:22:00.327Z,72.70
2018-12-16T10:24:29.310Z,70.40
2018-12-16T10:26:57.513Z,70.30
2018-12-16T10:29:26.534Z,74.00
2018-12-16T10:31:54.726Z,74.00
2018-12-16T10:34:22.987Z,76.00
2018-12-16T10:36:51.269Z,75.90
2018-12-16T10:39:19.493Z,78.10
2018-12-16T10:41:47.781Z,71.60
2018-12-16T10:44:16.023Z,75.10
2018-12-16T10:46:44.261Z,73.70
2018-12-16T10:49:13.233Z,75.70
2018-12-16T10:51:42.263Z,74.90
2018-12-16T10:54:10.953Z,75.30
2018-12-16T10:56:39.970Z,74.80
2018-12-16T10:59:08.281Z,74.80
2018-12-16T11:01:36.504Z,83.70
2018-12-16T11:04:04.761Z,73.90
2018-12-16T11:06:33.759Z,72.20
2018-12-16T11:09:02.006Z,72.30
2018-12-16T11:11:30.266Z,74.30
2018-12-16T11:13:58.472Z,83.90
2018-12-16T11:16:27.527Z,76.30
2018-12-16T11:18:55.773Z,76.10
2018-12-16T11:21:24.014Z,86.00
2018-12-16T11:23:53.972Z,84.20
2018-12-16T11:26:21.249Z,85.20
2018-12-16T11:28:49.494Z,82.20
2018-12-16T11:31:17.737Z,84.50
2018-12-16T11:33:46.796Z,81.20
2018-12-16T11:36:15.042Z,86.50
2018-12-16T11:38:43.559Z,84.30
2018-12-16T11:41:11.753Z,81.50
2018-12-16T11:43:40.015Z,87.90
2018-12-16T11:46:08.289Z,81.40
2018-12-16T11:48:37.275Z,80.90
2018-12-16T11:51:05.514Z,81.00
2018-12-16T11:53:33.708Z,95.20
2018-12-16T11:56:01.929Z,88.40
2018-12-16T11:58:30.181Z,91.90
2018-12-16T12:00:58.401Z,92.60
2018-12-16T12:03:27.407Z,92.20
2018-12-16T12:05:56.419Z,93.20
2018-12-16T12:08:24.643Z,93.10
2018-12-16T12:10:52.874Z,94.90
2018-12-16T12:13:21.902Z,98.50
2018-12-16T12:15:50.152Z,97.80
2018-12-16T12:18:19.145Z,94.70
2018-12-16T12:20:47.619Z,94.60
2018-12-16T12:23:15.863Z,96.60
2018-12-16T12:25:44.828Z,98.70
2018-12-16T12:28:13.087Z,98.60
2018-12-16T12:30:41.282Z,97.20
2018-12-16T12:33:09.535Z,97.60
2018-12-16T12:35:37.847Z,90.90
2018-12-16T12:38:06.107Z,93.40
2018-12-16T12:40:34.357Z,92.80
2018-12-16T12:43:02.586Z,98.00
2018-12-16T12:45:30.786Z,95.60
2018-12-16T12:47:59.007Z,98.30
2018-12-16T12:50:27.226Z,97.60
2018-12-16T12:52:56.275Z,93.90
2018-12-16T12:55:26.919Z,93.40
2018-12-16T12:57:52.744Z,93.60
2018-12-16T13:00:20.936Z,91.60
2018-12-16T13:02:49.165Z,99.90
2018-12-16T13:05:17.372Z,96.40
2018-12-16T13:07:45.638Z,88.50
2018-12-16T13:10:14.598Z,91.00
2018-12-16T13:12:42.802Z,90.90
2018-12-16T13:15:11.027Z,92.70
2018-12-16T13:17:40.047Z,94.50
2018-12-16T13:20:08.298Z,94.40
2018-12-16T13:22:37.321Z,95.50
2018-12-16T13:25:17.089Z,95.10
2018-12-16T13:27:45.355Z,97.80
2018-12-16T13:30:13.624Z,95.80
2018-12-16T13:32:41.869Z,99.00
2018-12-16T13:35:10.894Z,97.90
2018-12-16T13:37:39.205Z,97.60
2018-12-16T13:40:08.208Z,97.00
2018-12-16T13:42:36.456Z,97.50
2018-12-16T13:45:04.666Z,97.10
2018-12-16T13:47:33.662Z,98.40
2018-12-16T13:50:01.864Z,98.60
2018-12-16T13:52:30.137Z,99.00
2018-12-16T13:54:59.094Z,98.30
2018-12-16T13:57:27.365Z,97.90
2018-12-16T13:59:55.616Z,96.30
2018-12-16T14:02:23.866Z,92.90
2018-12-16T14:04:52.846Z,91.40
2018-12-16T14:07:21.913Z,92.70
2018-12-16T14:09:50.112Z,92.60
2018-12-16T14:12:18.373Z,95.20
2018-12-16T14:14:46.621Z,92.90
2018-12-16T14:17:14.860Z,93.70
2018-12-16T14:19:43.878Z,97.10
2018-12-16T14:22:12.063Z,97.80
2018-12-16T14:24:40.293Z,99.90
2018-12-16T14:27:09.259Z,99.90
2018-12-16T14:29:37.475Z,99.90
2018-12-16T14:32:05.715Z,99.90
2018-12-16T14:34:34.228Z,99.90
2018-12-16T14:37:03.258Z,99.90
2018-12-16T14:39:31.495Z,99.90
2018-12-16T14:41:59.708Z,99.50
2018-12-16T14:44:27.908Z,99.90
2018-12-16T14:46:56.370Z,99.90
2018-12-16T14:49:24.586Z,99.90
2018-12-16T14:51:52.816Z,98.30
2018-12-16T14:54:21.033Z,99.70
2018-12-16T14:56:49.293Z,95.40
2018-12-16T14:59:17.546Z,97.50
2018-12-16T15:01:45.791Z,99.90
2018-12-16T15:04:14.806Z,97.40
2018-12-16T15:06:43.073Z,98.70
2018-12-16T15:09:12.126Z,94.20
2018-12-16T15:11:40.351Z,94.30
2018-12-16T15:14:09.319Z,95.30
2018-12-16T15:16:38.287Z,99.90
2018-12-16T15:19:06.511Z,99.90
2018-12-16T15:21:34.757Z,94.40
2018-12-16T15:24:02.942Z,99.90
2018-12-16T15:26:31.928Z,97.10
2018-12-16T15:29:00.123Z,98.50
2018-12-16T15:31:29.114Z,99.90
2018-12-16T15:33:58.118Z,99.90
2018-12-16T15:36:26.378Z,99.90
2018-12-16T15:38:55.347Z,95.00
2018-12-16T15:41:23.628Z,95.00
2018-12-16T15:43:51.816Z,99.90
2018-12-16T15:46:20.374Z,97.70
2018-12-16T15:48:48.555Z,98.30
2018-12-16T15:51:16.754Z,96.90
2018-12-16T15:53:45.760Z,94.70
2018-12-16T15:56:13.966Z,94.50
2018-12-16T15:58:42.217Z,95.50
2018-12-16T16:01:11.237Z,94.80
2018-12-16T16:03:39.438Z,94.70
2018-12-16T16:06:07.696Z,94.20
2018-12-16T16:08:35.949Z,92.70
2018-12-16T16:11:04.195Z,93.10
2018-12-16T16:13:33.206Z,96.60
2018-12-16T16:16:02.175Z,94.60
2018-12-16T16:18:30.441Z,94.60
2018-12-16T16:20:58.635Z,95.80
2018-12-16T16:23:27.616Z,97.40
2018-12-16T16:25:55.836Z,97.80
2018-12-16T16:28:24.805Z,96.50
2018-12-16T16:30:54.433Z,99.90
2018-12-16T16:33:22.049Z,99.90
2018-12-16T16:35:51.082Z,99.90
2018-12-16T16:38:19.321Z,99.90
2018-12-16T16:40:48.348Z,99.90
2018-12-16T16:43:17.369Z,96.10
2018-12-16T16:45:45.574Z,96.10
2018-12-16T16:48:14.092Z,95.90
2018-12-16T16:50:42.290Z,96.40
2018-12-16T16:53:11.303Z,99.90
2018-12-16T16:55:39.559Z,95.70
2018-12-16T16:58:07.803Z,95.70
2018-12-16T17:00:36.021Z,93.70
2018-12-16T17:03:04.290Z,94.30
2018-12-16T17:05:33.306Z,93.40
2018-12-16T17:08:01.569Z,93.30
2018-12-16T17:10:29.779Z,96.50
2018-12-16T17:12:58.049Z,92.90
2018-12-16T17:15:26.262Z,93.20
2018-12-16T17:17:54.503Z,92.90
2018-12-16T17:20:22.726Z,93.70
2018-12-16T17:22:51.739Z,93.40
2018-12-16T17:25:20.744Z,92.20
2018-12-16T17:27:49.024Z,92.30
2018-12-16T17:30:17.230Z,94.40
2018-12-16T17:32:45.488Z,90.90
2018-12-16T17:35:13.702Z,91.10
2018-12-16T17:37:41.955Z,92.50
2018-12-16T17:40:10.159Z,90.90
2018-12-16T17:42:38.384Z,93.90
2018-12-16T17:45:06.648Z,91.20
2018-12-16T17:47:34.924Z,91.80
2018-12-16T17:50:03.133Z,92.30
2018-12-16T17:52:31.390Z,93.70
2018-12-16T17:54:59.668Z,92.90
2018-12-16T17:57:27.919Z,93.00
2018-12-16T17:59:56.879Z,93.10
2018-12-16T18:02:25.131Z,93.00
2018-12-16T18:04:53.346Z,93.40
2018-12-16T18:07:22.315Z,93.50
2018-12-16T18:09:50.556Z,93.40
2018-12-16T18:12:18.760Z,92.80
2018-12-16T18:14:47.763Z,91.60
2018-12-16T18:17:16.006Z,91.50
2018-12-16T18:19:44.209Z,93.30
2018-12-16T18:22:14.183Z,92.70
2018-12-16T18:24:40.763Z,94.20
2018-12-16T18:27:08.958Z,91.20
2018-12-16T18:29:37.186Z,95.90
2018-12-16T18:32:06.150Z,92.80
2018-12-16T18:34:35.201Z,93.00
2018-12-16T18:37:03.446Z,93.20
2018-12-16T18:39:31.750Z,93.10
2018-12-16T18:42:00.018Z,93.40
2018-12-16T18:44:28.219Z,96.20
2018-12-16T18:46:56.460Z,94.70
2018-12-16T18:49:24.678Z,94.00
2018-12-16T18:51:52.979Z,92.00
2018-12-16T18:54:21.214Z,92.20
2018-12-16T18:56:51.305Z,91.80
2018-12-16T18:59:18.463Z,92.20
2018-12-16T19:01:46.850Z,96.10
2018-12-16T19:04:15.071Z,92.30
2018-12-16T19:06:43.347Z,94.20
2018-12-16T19:09:11.573Z,95.20
2018-12-16T19:11:39.852Z,96.60
2018-12-16T19:14:08.101Z,94.30
2018-12-16T19:16:37.214Z,93.40
2018-12-16T19:19:05.458Z,93.10
2018-12-16T19:21:33.742Z,93.60
2018-12-16T19:24:02.078Z,96.30
2018-12-16T19:26:30.307Z,95.20
2018-12-16T19:28:58.624Z,93.60
2018-12-16T19:31:26.893Z,95.10
2018-12-16T19:33:55.117Z,95.60
2018-12-16T19:36:23.391Z,96.10
2018-12-16T19:38:51.716Z,96.50
2018-12-16T19:41:19.872Z,92.60
2018-12-16T19:43:48.138Z,93.60
2018-12-16T19:46:17.172Z,95.80
2018-12-16T19:48:45.484Z,96.20
2018-12-16T19:51:13.750Z,95.90
2018-12-16T19:53:41.963Z,93.00
2018-12-16T19:56:10.960Z,99.10
2018-12-16T19:58:39.999Z,97.90
2018-12-16T20:01:08.295Z,98.20
2018-12-16T20:03:36.600Z,94.20
2018-12-16T20:06:10.463Z,94.60
2018-12-16T20:08:38.746Z,99.90
2018-12-16T20:11:06.968Z,96.60
2018-12-16T20:13:35.961Z,94.80
2018-12-16T20:16:05.067Z,95.30
2018-12-16T20:18:33.325Z,95.60
2018-12-16T20:21:01.521Z,95.90
2018-12-16T20:23:29.833Z,95.90
2018-12-16T20:25:58.049Z,95.80
2018-12-16T20:28:26.314Z,98.50
2018-12-16T20:30:54.576Z,99.90
2018-12-16T20:33:22.772Z,95.80
2018-12-16T20:35:51.043Z,96.60
2018-12-16T20:38:19.230Z,96.40
2018-12-16T20:40:47.454Z,97.20
2018-12-16T20:43:15.710Z,94.60
2018-12-16T20:45:44.691Z,97.20
2018-12-16T20:48:13.792Z,95.20
2018-12-16T20:50:43.072Z,97.50
2018-12-16T20:53:11.268Z,97.00
2018-12-16T20:55:40.242Z,94.70
2018-12-16T20:58:08.461Z,94.90
2018-12-16T21:00:36.683Z,99.90
2018-12-16T21:03:04.899Z,99.10
2018-12-16T21:05:33.100Z,95.40
2018-12-16T21:08:01.313Z,95.10
2018-12-16T21:10:29.557Z,98.40
2018-12-16T21:13:03.447Z,94.20
2018-12-16T21:15:37.367Z,94.40
2018-12-16T21:18:11.296Z,95.50
2018-12-16T21:20:39.505Z,98.20
2018-12-16T21:23:07.719Z,96.30
2018-12-16T21:25:35.931Z,97.50
2018-12-16T21:28:04.170Z,95.20
2018-12-16T21:30:32.383Z,96.20
2018-12-16T21:33:00.624Z,99.40
2018-12-16T21:35:28.879Z,97.20
2018-12-16T21:37:57.853Z,95.80
2018-12-16T21:40:26.083Z,96.50
2018-12-16T21:42:54.332Z,97.90
2018-12-16T21:45:23.349Z,95.30
2018-12-16T21:47:51.541Z,95.10
2018-12-16T21:50:20.519Z,99.90
2018-12-16T21:52:48.768Z,94.90
2018-12-16T21:55:17.744Z,98.90
2018-12-16T21:57:46.712Z,96.50
2018-12-16T22:00:14.976Z,96.40
2018-12-16T22:02:43.215Z,94.10
2018-12-16T22:05:12.250Z,97.30
2018-12-16T22:07:40.486Z,97.40
2018-12-16T22:10:09.481Z,95.90
2018-12-16T22:12:37.734Z,95.80
2018-12-16T22:15:05.976Z,95.10
2018-12-16T22:17:34.190Z,96.80
2018-12-16T22:20:03.202Z,98.30
2018-12-16T22:22:32.217Z,95.30
2018-12-16T22:25:00.462Z,95.30
2018-12-16T22:27:29.474Z,97.40
2018-12-16T22:29:57.680Z,97.90
2018-12-16T22:32:25.976Z,97.70
2018-12-16T22:34:54.218Z,99.80
2018-12-16T22:37:22.434Z,97.20
2018-12-16T22:39:50.672Z,98.70
2018-12-16T22:42:19.700Z,99.20
2018-12-16T22:44:47.934Z,98.90
2018-12-16T22:47:16.896Z,95.60
2018-12-16T22:49:45.924Z,96.30
2018-12-16T22:52:14.941Z,97.00
2018-12-16T22:54:43.085Z,96.90
2018-12-16T22:57:11.328Z,95.10
2018-12-16T22:59:39.528Z,97.20
2018-12-16T23:02:07.769Z,97.80
2018-12-16T23:04:35.987Z,97.10
2018-12-16T23:07:04.245Z,95.20
2018-12-16T23:09:33.256Z,95.80
2018-12-16T23:12:02.215Z,96.20
2018-12-16T23:14:30.459Z,96.70
2018-12-16T23:16:58.646Z,97.50
2018-12-16T23:19:26.957Z,99.90
2018-12-16T23:21:55.174Z,97.50
2018-12-16T23:24:24.147Z,97.10
2018-12-16T23:26:52.353Z,97.70
2018-12-16T23:29:20.593Z,97.40
2018-12-16T23:31:49.576Z,97.10
2018-12-16T23:34:18.587Z,99.90
2018-12-16T23:36:47.553Z,99.90
2018-12-16T23:39:15.795Z,99.90
2018-12-16T23:41:44.042Z,97.80
2018-12-16T23:44:12.244Z,96.60
2018-12-16T23:46:40.464Z,99.90
2018-12-16T23:49:08.704Z,99.90
2018-12-16T23:51:37.014Z,98.00
2018-12-16T23:54:05.253Z,97.50
2018-12-16T23:56:33.492Z,99.20
2018-12-16T23:59:02.443Z,97.40
